Darstellungsparameter: Aktuell verwendete Einstellungen:
Skalierung der Graphiken ... ?
xyx+y,   Skalierungsfaktor:      Skalierung: Modus: x, Faktor: 1
Darstellungszeitraum ... ?
Vom - - bis: - -   Zeitraum: 13.05.2017 - 15.05.2017
Min/Max/Avg-Anzeige ... ?
Zeige MMA aktuell
Zeige MMA Monat
Zeige MMA alles
Zeige --A aktuell
Zeige --A Monat
Zeige --A alles
Keine MMA-Anzeige
MMA:
Average (ber die Originaldaten)
MMA-Basis: 13.05.2017 - 15.05.2017
Quicknavigation für Darstellung... ?
Tage:      1T, 2T, 3T, 5T -1T -2T -3T -5T +1T +2T +3T +5T
Wochen: 1W, 2W, 3W -1W -2W -3W +1W +2W +3W
Monate: 1M, 3M, 6M -1M -3M -6M +1M +3M +6M
Jahre:    1J, 3J, 5J, 10J -1J -3J -5J -10J +1J +3J +5J +10J
Nutze für die Darstellung ... ?
Originaldaten oder Mittelwerte auf ...
Stundenbasis Tagesbasis Wochenbasis
Monatsbasis Jahresbasis      Datenbasis: Original-Daten
Darstellen als:
Statistik (Auto) Statistik J:M      Darstellung:
Zur Graphik,    zurück zur Übersicht aller Sensoren.
 
Tabellarische Datenbersicht: ?
 
Sensor: Nr:Datum:Temp:Abs-Feuchte:Windchill:Wind:
Aussen-T/F 1 13-05-2017 00:00:00 13.9 C 11.03 g/m*3 13.9 C 0 km/h
2 13-05-2017 00:05:00 13.8 C 10.96 g/m*3 13.8 C 0 km/h
3 13-05-2017 00:10:00 13.8 C 10.96 g/m*3 13.8 C 0 km/h
4 13-05-2017 00:15:00 13.8 C 10.96 g/m*3 13.8 C 0 km/h
5 13-05-2017 00:20:00 13.8 C 10.96 g/m*3 13.8 C 0 km/h
6 13-05-2017 00:25:00 13.7 C 10.89 g/m*3 13.7 C 0 km/h
7 13-05-2017 00:30:00 13.7 C 10.89 g/m*3 13.7 C 0 km/h
8 13-05-2017 00:35:00 13.7 C 10.89 g/m*3 13.7 C 0 km/h
9 13-05-2017 00:40:00 13.7 C 10.89 g/m*3 13.7 C 0 km/h
10 13-05-2017 00:45:00 13.7 C 10.89 g/m*3 13.7 C 0 km/h
11 13-05-2017 00:50:00 13.6 C 10.83 g/m*3 13.6 C 0 km/h
12 13-05-2017 00:55:00 13.6 C 10.83 g/m*3 13.6 C 0 km/h
13 13-05-2017 01:00:00 13.6 C 10.83 g/m*3 13.6 C 0 km/h
14 13-05-2017 01:05:00 13.5 C 10.76 g/m*3 13.5 C 0 km/h
15 13-05-2017 01:10:00 13.5 C 10.76 g/m*3 13.5 C 0 km/h
16 13-05-2017 01:15:00 13.4 C 10.69 g/m*3 13.4 C 0 km/h
17 13-05-2017 01:20:00 13.4 C 10.69 g/m*3 13.4 C 0 km/h
18 13-05-2017 01:25:00 13.4 C 10.69 g/m*3 13.4 C 0 km/h
19 13-05-2017 01:30:00 13.3 C 10.74 g/m*3 13.3 C 0 km/h
20 13-05-2017 01:35:00 13.3 C 10.74 g/m*3 13.3 C 0 km/h
21 13-05-2017 01:40:00 13.3 C 10.74 g/m*3 13.3 C 0 km/h
22 13-05-2017 01:45:00 13.2 C 10.68 g/m*3 13.2 C 0 km/h
23 13-05-2017 01:50:00 13.2 C 10.68 g/m*3 13.2 C 0 km/h
24 13-05-2017 01:55:00 13.2 C 10.68 g/m*3 13.2 C 0 km/h
25 13-05-2017 02:00:00 13.2 C 10.68 g/m*3 13.2 C 0 km/h
Sensor: Nr:Datum:Temp:Abs-Feuchte:Windchill:Wind:
Aussen-T/F 26 13-05-2017 02:05:00 13.2 C 10.68 g/m*3 13.2 C 0 km/h
27 13-05-2017 02:10:00 13.2 C 10.68 g/m*3 13.2 C 0 km/h
28 13-05-2017 02:15:00 13.1 C 10.5 g/m*3 13.1 C 0 km/h
29 13-05-2017 02:20:00 13 C 10.43 g/m*3 13 C 0 km/h
30 13-05-2017 02:25:00 12.9 C 10.37 g/m*3 12.9 C 0 km/h
31 13-05-2017 02:30:00 12.8 C 10.3 g/m*3 12.8 C 0 km/h
32 13-05-2017 02:35:00 12.8 C 10.42 g/m*3 12.8 C 0 km/h
33 13-05-2017 02:40:00 12.7 C 10.24 g/m*3 12.7 C 0 km/h
34 13-05-2017 02:45:00 12.6 C 10.18 g/m*3 12.6 C 0 km/h
35 13-05-2017 02:50:00 12.6 C 10.18 g/m*3 12.6 C 0 km/h
36 13-05-2017 02:55:00 12.4 C 10.05 g/m*3 12.4 C 0 km/h
37 13-05-2017 03:00:00 12.3 C 9.99 g/m*3 12.3 C 0 km/h
38 13-05-2017 03:05:00 12.1 C 9.87 g/m*3 12.1 C 0 km/h
39 13-05-2017 03:10:00 12 C 9.8 g/m*3 12 C 0 km/h
40 13-05-2017 03:15:00 11.9 C 9.74 g/m*3 11.9 C 0 km/h
41 13-05-2017 03:20:00 11.8 C 9.79 g/m*3 11.8 C 0 km/h
42 13-05-2017 03:25:00 11.7 C 9.73 g/m*3 11.7 C 0 km/h
43 13-05-2017 03:30:00 11.6 C 9.67 g/m*3 11.6 C 0 km/h
44 13-05-2017 03:35:00 11.6 C 9.67 g/m*3 11.6 C 0 km/h
45 13-05-2017 03:40:00 11.6 C 9.67 g/m*3 11.6 C 0 km/h
46 13-05-2017 03:45:00 11.5 C 9.71 g/m*3 11.5 C 0 km/h
47 13-05-2017 03:50:00 11.4 C 9.55 g/m*3 11.4 C 0 km/h
48 13-05-2017 03:55:00 11.4 C 9.55 g/m*3 11.4 C 0 km/h
49 13-05-2017 04:00:00 11.3 C 9.59 g/m*3 11.3 C 0 km/h
50 13-05-2017 04:05:00 11.2 C 9.53 g/m*3 11.2 C 0 km/h
Sensor: Nr:Datum:Temp:Abs-Feuchte:Windchill:Wind:
Aussen-T/F 51 13-05-2017 04:10:00 11.2 C 9.53 g/m*3 11.2 C 0 km/h
52 13-05-2017 04:15:00 11.2 C 9.53 g/m*3 11.2 C 0 km/h
53 13-05-2017 04:20:00 11.2 C 9.53 g/m*3 11.2 C 0 km/h
54 13-05-2017 04:25:00 11.3 C 9.59 g/m*3 11.3 C 0 km/h
55 13-05-2017 04:30:00 11.3 C 9.59 g/m*3 11.3 C 0 km/h
56 13-05-2017 04:35:00 11.3 C 9.59 g/m*3 11.3 C 0 km/h
57 13-05-2017 04:40:00 11.3 C 9.69 g/m*3 11.3 C 0 km/h
58 13-05-2017 04:45:00 11.3 C 9.69 g/m*3 11.3 C 0 km/h
59 13-05-2017 04:50:00 11.3 C 9.69 g/m*3 11.3 C 0 km/h
60 13-05-2017 04:55:00 11.4 C 9.75 g/m*3 11.4 C 0 km/h
61 13-05-2017 05:00:00 11.4 C 9.75 g/m*3 11.4 C 0 km/h
62 13-05-2017 05:05:00 11.4 C 9.75 g/m*3 11.4 C 0 km/h
63 13-05-2017 05:10:00 11.5 C 9.81 g/m*3 11.5 C 0 km/h
64 13-05-2017 05:15:00 11.6 C 9.87 g/m*3 11.6 C 0 km/h
65 13-05-2017 05:20:00 11.6 C 9.87 g/m*3 11.6 C 0 km/h
66 13-05-2017 05:25:00 11.6 C 9.87 g/m*3 11.6 C 0 km/h
67 13-05-2017 05:30:00 11.6 C 9.87 g/m*3 11.6 C 0 km/h
68 13-05-2017 05:35:00 11.6 C 9.87 g/m*3 11.6 C 0 km/h
69 13-05-2017 05:40:00 11.6 C 9.87 g/m*3 11.6 C 0 km/h
70 13-05-2017 05:45:00 11.6 C 9.87 g/m*3 11.6 C 0 km/h
71 13-05-2017 05:50:00 11.7 C 9.94 g/m*3 11.7 C 0 km/h
72 13-05-2017 05:55:00 11.7 C 9.94 g/m*3 11.7 C 0 km/h
73 13-05-2017 06:00:00 11.7 C 9.94 g/m*3 11.7 C 0 km/h
74 13-05-2017 06:05:00 11.7 C 9.94 g/m*3 11.7 C 0 km/h
75 13-05-2017 06:10:00 11.7 C 9.94 g/m*3 11.7 C 0 km/h
Sensor: Nr:Datum:Temp:Abs-Feuchte:Windchill:Wind:
Aussen-T/F 76 13-05-2017 06:15:00 11.8 C 10 g/m*3 11.8 C 0 km/h
77 13-05-2017 06:20:00 11.8 C 10 g/m*3 11.8 C 0 km/h
78 13-05-2017 06:25:00 11.8 C 10 g/m*3 11.8 C 0 km/h
79 13-05-2017 06:30:00 11.9 C 10.17 g/m*3 11.9 C 0 km/h
80 13-05-2017 06:35:00 11.9 C 10.17 g/m*3 11.9 C 0 km/h
81 13-05-2017 06:40:00 12 C 10.23 g/m*3 12 C 0 km/h
82 13-05-2017 06:45:00 12.1 C 10.29 g/m*3 12.1 C 0 km/h
83 13-05-2017 06:50:00 12.1 C 10.29 g/m*3 12.1 C 0 km/h
84 13-05-2017 06:55:00 12.2 C 10.36 g/m*3 12.2 C 1.6 km/h
85 13-05-2017 07:00:00 12.2 C 10.25 g/m*3 12.2 C 1.6 km/h
86 13-05-2017 07:05:00 12.2 C 10.36 g/m*3 12.2 C 1.6 km/h
87 13-05-2017 07:10:00 12.2 C 10.36 g/m*3 12.2 C 0 km/h
88 13-05-2017 07:15:00 12.3 C 10.42 g/m*3 12.3 C 0 km/h
89 13-05-2017 07:20:00 12.4 C 10.49 g/m*3 12.4 C 0 km/h
90 13-05-2017 07:25:00 12.4 C 10.49 g/m*3 12.4 C 0 km/h
91 13-05-2017 07:30:00 12.6 C 10.62 g/m*3 12.6 C 0 km/h
92 13-05-2017 07:35:00 12.7 C 10.69 g/m*3 12.7 C 1.6 km/h
93 13-05-2017 07:40:00 12.8 C 10.75 g/m*3 12.8 C 6.4 km/h
94 13-05-2017 07:45:00 12.9 C 10.82 g/m*3 12.9 C 3.2 km/h
95 13-05-2017 07:50:00 13.1 C 10.95 g/m*3 13.1 C 4.8 km/h
96 13-05-2017 07:55:00 13.1 C 10.84 g/m*3 13.1 C 4.8 km/h
97 13-05-2017 08:00:00 13.2 C 10.91 g/m*3 13.2 C 1.6 km/h
98 13-05-2017 08:05:00 13.2 C 10.91 g/m*3 13.2 C 3.2 km/h
99 13-05-2017 08:10:00 13.3 C 10.98 g/m*3 13.3 C 3.2 km/h
100 13-05-2017 08:15:00 13.4 C 11.04 g/m*3 13.4 C 1.6 km/h
Sensor: Nr:Datum:Temp:Abs-Feuchte:Windchill:Wind:
Aussen-T/F 101 13-05-2017 08:20:00 13.5 C 10.99 g/m*3 13.5 C 6.4 km/h
102 13-05-2017 08:25:00 13.6 C 11.06 g/m*3 13.6 C 8.1 km/h
103 13-05-2017 08:30:00 13.6 C 10.95 g/m*3 13.6 C 4.8 km/h
104 13-05-2017 08:35:00 13.7 C 11.01 g/m*3 13.7 C 0 km/h
105 13-05-2017 08:40:00 13.9 C 11.15 g/m*3 13.9 C 3.2 km/h
106 13-05-2017 08:45:00 14 C 11.22 g/m*3 14 C 1.6 km/h
107 13-05-2017 08:50:00 14.1 C 11.29 g/m*3 14.1 C 0 km/h
108 13-05-2017 08:55:00 14.2 C 11.36 g/m*3 14.2 C 3.2 km/h
109 13-05-2017 09:00:00 14.3 C 11.43 g/m*3 14.3 C 1.6 km/h
110 13-05-2017 09:05:00 14.5 C 11.57 g/m*3 14.5 C 6.4 km/h
111 13-05-2017 09:10:00 14.6 C 11.51 g/m*3 14.6 C 6.4 km/h
112 13-05-2017 09:15:00 14.7 C 11.58 g/m*3 14.7 C 4.8 km/h
113 13-05-2017 09:20:00 14.8 C 11.65 g/m*3 14.8 C 6.4 km/h
114 13-05-2017 09:25:00 15 C 11.67 g/m*3 15 C 6.4 km/h
115 13-05-2017 09:30:00 15.2 C 11.68 g/m*3 15.2 C 6.4 km/h
116 13-05-2017 09:35:00 15.3 C 11.62 g/m*3 15.3 C 6.4 km/h
117 13-05-2017 09:40:00 15.4 C 11.56 g/m*3 15.4 C 9.7 km/h
118 13-05-2017 09:45:00 15.7 C 11.77 g/m*3 15.7 C 9.7 km/h
119 13-05-2017 09:50:00 15.8 C 11.71 g/m*3 15.8 C 9.7 km/h
120 13-05-2017 09:55:00 15.9 C 11.78 g/m*3 15.9 C 6.4 km/h
121 13-05-2017 10:00:00 16.1 C 11.79 g/m*3 16.1 C 8.1 km/h
122 13-05-2017 10:05:00 16.2 C 11.86 g/m*3 16.2 C 6.4 km/h
123 13-05-2017 10:10:00 16.3 C 11.79 g/m*3 16.3 C 6.4 km/h
124 13-05-2017 10:15:00 16.4 C 11.72 g/m*3 16.4 C 9.7 km/h
125 13-05-2017 10:20:00 16.6 C 11.72 g/m*3 16.6 C 9.7 km/h
Sensor: Nr:Datum:Temp:Abs-Feuchte:Windchill:Wind:
Aussen-T/F 126 13-05-2017 10:25:00 16.7 C 11.8 g/m*3 16.7 C 8.1 km/h
127 13-05-2017 10:30:00 16.8 C 11.72 g/m*3 16.8 C 11.3 km/h
128 13-05-2017 10:35:00 16.9 C 11.79 g/m*3 16.9 C 6.4 km/h
129 13-05-2017 10:40:00 17.1 C 11.94 g/m*3 17.1 C 6.4 km/h
130 13-05-2017 10:45:00 17.2 C 11.86 g/m*3 17.2 C 3.2 km/h
131 13-05-2017 10:50:00 17.3 C 11.79 g/m*3 17.3 C 6.4 km/h
132 13-05-2017 10:55:00 17.4 C 11.71 g/m*3 17.4 C 6.4 km/h
133 13-05-2017 11:00:00 17.5 C 11.78 g/m*3 17.5 C 8.1 km/h
134 13-05-2017 11:05:00 17.7 C 11.92 g/m*3 17.7 C 6.4 km/h
135 13-05-2017 11:10:00 17.8 C 11.84 g/m*3 17.8 C 6.4 km/h
136 13-05-2017 11:15:00 17.9 C 11.76 g/m*3 17.9 C 4.8 km/h
137 13-05-2017 11:20:00 18.2 C 12.28 g/m*3 18.2 C 4.8 km/h
138 13-05-2017 11:25:00 18.3 C 11.88 g/m*3 18.3 C 9.7 km/h
139 13-05-2017 11:30:00 18.5 C 11.87 g/m*3 18.5 C 6.4 km/h
140 13-05-2017 11:35:00 18.7 C 12.01 g/m*3 18.7 C 6.4 km/h
141 13-05-2017 11:40:00 18.9 C 11.99 g/m*3 18.9 C 6.4 km/h
142 13-05-2017 11:45:00 19.1 C 12.29 g/m*3 19.1 C 4.8 km/h
143 13-05-2017 11:50:00 19.2 C 11.71 g/m*3 19.2 C 6.4 km/h
144 13-05-2017 11:55:00 19.3 C 12.11 g/m*3 19.3 C 6.4 km/h
145 13-05-2017 12:00:00 19.5 C 11.75 g/m*3 19.5 C 11.3 km/h
146 13-05-2017 12:05:00 19.7 C 11.72 g/m*3 19.7 C 8.1 km/h
147 13-05-2017 12:10:00 19.9 C 11.51 g/m*3 19.9 C 11.3 km/h
148 13-05-2017 12:15:00 19.9 C 11.51 g/m*3 19.9 C 11.3 km/h
149 13-05-2017 12:20:00 19.8 C 11.1 g/m*3 19.8 C 16.1 km/h
150 13-05-2017 12:25:00 19.8 C 11.27 g/m*3 19.8 C 16.1 km/h
Sensor: Nr:Datum:Temp:Abs-Feuchte:Windchill:Wind:
Aussen-T/F 151 13-05-2017 12:30:00 19.9 C 11 g/m*3 19.9 C 9.7 km/h
152 13-05-2017 12:35:00 20 C 10.89 g/m*3 20 C 11.3 km/h
153 13-05-2017 12:40:00 20.1 C 10.78 g/m*3 20.1 C 16.1 km/h
154 13-05-2017 12:45:00 20.2 C 10.84 g/m*3 20.2 C 14.5 km/h
155 13-05-2017 12:50:00 20.2 C 11.02 g/m*3 20.2 C 17.7 km/h
156 13-05-2017 12:55:00 20.2 C 11.02 g/m*3 20.2 C 9.7 km/h
157 13-05-2017 13:00:00 20.3 C 11.43 g/m*3 20.3 C 9.7 km/h
158 13-05-2017 13:05:00 20.4 C 10.97 g/m*3 20.4 C 14.5 km/h
159 13-05-2017 13:10:00 20.6 C 11.28 g/m*3 20.6 C 12.9 km/h
160 13-05-2017 13:15:00 20.6 C 11.28 g/m*3 20.6 C 19.3 km/h
161 13-05-2017 13:20:00 20.5 C 11.21 g/m*3 20.5 C 9.7 km/h
162 13-05-2017 13:25:00 20.4 C 11.32 g/m*3 20.4 C 6.4 km/h
163 13-05-2017 13:30:00 20.5 C 11.21 g/m*3 20.5 C 12.9 km/h
164 13-05-2017 13:35:00 20.7 C 11.34 g/m*3 20.7 C 11.3 km/h
165 13-05-2017 13:40:00 20.7 C 11.34 g/m*3 20.7 C 11.3 km/h
166 13-05-2017 13:45:00 20.7 C 11.16 g/m*3 20.7 C 9.7 km/h
167 13-05-2017 13:50:00 20.7 C 10.98 g/m*3 20.7 C 12.9 km/h
168 13-05-2017 13:55:00 20.7 C 10.98 g/m*3 20.7 C 12.9 km/h
169 13-05-2017 14:00:00 20.8 C 10.86 g/m*3 20.8 C 8.1 km/h
170 13-05-2017 14:05:00 20.8 C 11.05 g/m*3 20.8 C 9.7 km/h
171 13-05-2017 14:10:00 21 C 11.36 g/m*3 21 C 19.3 km/h
172 13-05-2017 14:15:00 21.2 C 11.12 g/m*3 21.2 C 14.5 km/h
173 13-05-2017 14:20:00 21.2 C 10.75 g/m*3 21.2 C 14.5 km/h
174 13-05-2017 14:25:00 21.3 C 11 g/m*3 21.3 C 8.1 km/h
175 13-05-2017 14:30:00 21.6 C 11 g/m*3 21.6 C 14.5 km/h
Sensor: Nr:Datum:Temp:Abs-Feuchte:Windchill:Wind:
Aussen-T/F 176 13-05-2017 14:35:00 21.8 C 11.13 g/m*3 21.8 C 14.5 km/h
177 13-05-2017 14:40:00 21.8 C 11.32 g/m*3 21.8 C 12.9 km/h
178 13-05-2017 14:45:00 21.8 C 11.32 g/m*3 21.8 C 11.3 km/h
179 13-05-2017 14:50:00 21.8 C 11.13 g/m*3 21.8 C 16.1 km/h
180 13-05-2017 14:55:00 21.9 C 11 g/m*3 21.9 C 8.1 km/h
181 13-05-2017 15:00:00 22 C 10.87 g/m*3 22 C 9.7 km/h
182 13-05-2017 15:05:00 21.9 C 11 g/m*3 21.9 C 9.7 km/h
183 13-05-2017 15:10:00 21.8 C 11.51 g/m*3 21.8 C 8.1 km/h
184 13-05-2017 15:15:00 21.6 C 10.81 g/m*3 21.6 C 11.3 km/h
185 13-05-2017 15:20:00 21.6 C 11.19 g/m*3 21.6 C 6.4 km/h
186 13-05-2017 15:25:00 22.2 C 10.99 g/m*3 22.2 C 6.4 km/h
187 13-05-2017 15:30:00 22.9 C 11.04 g/m*3 22.9 C 11.3 km/h
188 13-05-2017 15:35:00 23.5 C 10.36 g/m*3 23.5 C 14.5 km/h
189 13-05-2017 15:40:00 23.9 C 10.82 g/m*3 23.9 C 16.1 km/h
190 13-05-2017 15:45:00 24.2 C 11.44 g/m*3 24.2 C 12.9 km/h
191 13-05-2017 15:50:00 24.4 C 10.68 g/m*3 24.4 C 11.3 km/h
192 13-05-2017 15:55:00 24.7 C 10.41 g/m*3 24.7 C 12.9 km/h
193 13-05-2017 16:00:00 24.8 C 10.47 g/m*3 24.8 C 16.1 km/h
194 13-05-2017 16:05:00 24.8 C 10.24 g/m*3 24.8 C 11.3 km/h
195 13-05-2017 16:10:00 24.9 C 10.3 g/m*3 24.9 C 11.3 km/h
196 13-05-2017 16:15:00 25.2 C 9.78 g/m*3 25.2 C 14.5 km/h
197 13-05-2017 16:20:00 25.5 C 9.94 g/m*3 25.5 C 16.1 km/h
198 13-05-2017 16:25:00 25.7 C 10.77 g/m*3 25.7 C 9.7 km/h
199 13-05-2017 16:30:00 25.8 C 9.63 g/m*3 25.8 C 11.3 km/h
200 13-05-2017 16:35:00 25.8 C 9.63 g/m*3 25.8 C 12.9 km/h
Sensor: Nr:Datum:Temp:Abs-Feuchte:Windchill:Wind:
Aussen-T/F 201 13-05-2017 16:40:00 25.7 C 9.82 g/m*3 25.7 C 11.3 km/h
202 13-05-2017 16:45:00 25.4 C 9.65 g/m*3 25.4 C 12.9 km/h
203 13-05-2017 16:50:00 25.3 C 10.53 g/m*3 25.3 C 17.7 km/h
204 13-05-2017 16:55:00 25.6 C 10 g/m*3 25.6 C 11.3 km/h
205 13-05-2017 17:00:00 25.6 C 10 g/m*3 25.6 C 16.1 km/h
206 13-05-2017 17:05:00 25.7 C 10.06 g/m*3 25.7 C 12.9 km/h
207 13-05-2017 17:10:00 25.6 C 10.48 g/m*3 25.6 C 16.1 km/h
208 13-05-2017 17:15:00 25.7 C 10.29 g/m*3 25.7 C 16.1 km/h
209 13-05-2017 17:20:00 25.1 C 9.95 g/m*3 25.1 C 14.5 km/h
210 13-05-2017 17:25:00 24.7 C 10.86 g/m*3 24.7 C 12.9 km/h
211 13-05-2017 17:30:00 25 C 10.36 g/m*3 25 C 9.7 km/h
212 13-05-2017 17:35:00 25.3 C 10.3 g/m*3 25.3 C 12.9 km/h
213 13-05-2017 17:40:00 25.5 C 9.94 g/m*3 25.5 C 11.3 km/h
214 13-05-2017 17:45:00 25.7 C 9.82 g/m*3 25.7 C 12.9 km/h
215 13-05-2017 17:50:00 25.4 C 9.42 g/m*3 25.4 C 14.5 km/h
216 13-05-2017 17:55:00 25.2 C 9.08 g/m*3 25.2 C 16.1 km/h
217 13-05-2017 18:00:00 25 C 9.44 g/m*3 25 C 16.1 km/h
218 13-05-2017 18:05:00 24.8 C 9.79 g/m*3 24.8 C 12.9 km/h
219 13-05-2017 18:10:00 24.9 C 10.07 g/m*3 24.9 C 9.7 km/h
220 13-05-2017 18:15:00 24.8 C 10.02 g/m*3 24.8 C 8.1 km/h
221 13-05-2017 18:20:00 24.4 C 9.57 g/m*3 24.4 C 14.5 km/h
222 13-05-2017 18:25:00 23.9 C 9.74 g/m*3 23.9 C 14.5 km/h
223 13-05-2017 18:30:00 23.6 C 10.21 g/m*3 23.6 C 14.5 km/h
224 13-05-2017 18:35:00 23.3 C 9.83 g/m*3 23.3 C 12.9 km/h
225 13-05-2017 18:40:00 23.2 C 9.77 g/m*3 23.2 C 12.9 km/h
Sensor: Nr:Datum:Temp:Abs-Feuchte:Windchill:Wind:
Aussen-T/F 226 13-05-2017 18:45:00 23.5 C 9.94 g/m*3 23.5 C 16.1 km/h
227 13-05-2017 18:50:00 23.3 C 9.83 g/m*3 23.3 C 12.9 km/h
228 13-05-2017 18:55:00 23 C 9.66 g/m*3 23 C 12.9 km/h
229 13-05-2017 19:00:00 22.9 C 10.01 g/m*3 22.9 C 19.3 km/h
230 13-05-2017 19:05:00 22.7 C 9.9 g/m*3 22.7 C 16.1 km/h
231 13-05-2017 19:10:00 22.7 C 9.9 g/m*3 22.7 C 17.7 km/h
232 13-05-2017 19:15:00 22.2 C 10.01 g/m*3 22.2 C 12.9 km/h
233 13-05-2017 19:20:00 21.9 C 9.84 g/m*3 21.9 C 8.1 km/h
234 13-05-2017 19:25:00 21.6 C 10.24 g/m*3 21.6 C 1.6 km/h
235 13-05-2017 19:30:00 21.4 C 10.5 g/m*3 21.4 C 3.2 km/h
236 13-05-2017 19:35:00 21.3 C 10.44 g/m*3 21.3 C 0 km/h
237 13-05-2017 19:40:00 21.2 C 10.01 g/m*3 21.2 C 14.5 km/h
238 13-05-2017 19:45:00 20.9 C 10.38 g/m*3 20.9 C 6.4 km/h
239 13-05-2017 19:50:00 20.7 C 10.44 g/m*3 20.7 C 6.4 km/h
240 13-05-2017 19:55:00 20.5 C 10.32 g/m*3 20.5 C 11.3 km/h
241 13-05-2017 20:00:00 20.3 C 10.73 g/m*3 20.3 C 6.4 km/h
242 13-05-2017 20:05:00 20.2 C 10.49 g/m*3 20.2 C 3.2 km/h
243 13-05-2017 20:10:00 20 C 10.71 g/m*3 20 C 1.6 km/h
244 13-05-2017 20:15:00 19.8 C 10.59 g/m*3 19.8 C 6.4 km/h
245 13-05-2017 20:20:00 19.6 C 10.47 g/m*3 19.6 C 1.6 km/h
246 13-05-2017 20:25:00 19.4 C 10.34 g/m*3 19.4 C 8.1 km/h
247 13-05-2017 20:30:00 19.4 C 10.51 g/m*3 19.4 C 1.6 km/h
248 13-05-2017 20:35:00 19.3 C 10.78 g/m*3 19.3 C 1.6 km/h
249 13-05-2017 20:40:00 19.2 C 10.72 g/m*3 19.2 C 0 km/h
250 13-05-2017 20:45:00 19 C 10.59 g/m*3 19 C 0 km/h
Sensor: Nr:Datum:Temp:Abs-Feuchte:Windchill:Wind:
Aussen-T/F 251 13-05-2017 20:50:00 18.8 C 10.79 g/m*3 18.8 C 0 km/h
252 13-05-2017 20:55:00 18.7 C 10.89 g/m*3 18.7 C 0 km/h
253 13-05-2017 21:00:00 18.5 C 11.08 g/m*3 18.5 C 0 km/h
254 13-05-2017 21:05:00 18.3 C 10.79 g/m*3 18.3 C 1.6 km/h
255 13-05-2017 21:10:00 18.1 C 10.82 g/m*3 18.1 C 6.4 km/h
256 13-05-2017 21:15:00 18 C 10.91 g/m*3 18 C 1.6 km/h
257 13-05-2017 21:20:00 17.9 C 10.84 g/m*3 17.9 C 3.2 km/h
258 13-05-2017 21:25:00 17.8 C 10.93 g/m*3 17.8 C 3.2 km/h
259 13-05-2017 21:30:00 17.7 C 10.86 g/m*3 17.7 C 1.6 km/h
260 13-05-2017 21:35:00 17.5 C 10.73 g/m*3 17.5 C 4.8 km/h
261 13-05-2017 21:40:00 17.4 C 10.67 g/m*3 17.4 C 1.6 km/h
262 13-05-2017 21:45:00 17.3 C 10.9 g/m*3 17.3 C 3.2 km/h
263 13-05-2017 21:50:00 17.2 C 10.84 g/m*3 17.2 C 1.6 km/h
264 13-05-2017 21:55:00 17.1 C 10.63 g/m*3 17.1 C 4.8 km/h
265 13-05-2017 22:00:00 17 C 10.71 g/m*3 17 C 1.6 km/h
266 13-05-2017 22:05:00 16.9 C 10.64 g/m*3 16.9 C 1.6 km/h
267 13-05-2017 22:10:00 16.8 C 10.58 g/m*3 16.8 C 1.6 km/h
268 13-05-2017 22:15:00 16.8 C 10.72 g/m*3 16.8 C 0 km/h
269 13-05-2017 22:20:00 16.7 C 10.94 g/m*3 16.7 C 0 km/h
270 13-05-2017 22:25:00 16.7 C 10.94 g/m*3 16.7 C 0 km/h
271 13-05-2017 22:30:00 16.6 C 10.88 g/m*3 16.6 C 0 km/h
272 13-05-2017 22:35:00 16.5 C 10.95 g/m*3 16.5 C 1.6 km/h
273 13-05-2017 22:40:00 16.4 C 10.89 g/m*3 16.4 C 1.6 km/h
274 13-05-2017 22:45:00 16.3 C 10.82 g/m*3 16.3 C 1.6 km/h
275 13-05-2017 22:50:00 16.3 C 10.68 g/m*3 16.3 C 0 km/h
Sensor: Nr:Datum:Temp:Abs-Feuchte:Windchill:Wind:
Aussen-T/F 276 13-05-2017 22:55:00 16.2 C 10.76 g/m*3 16.2 C 0 km/h
277 13-05-2017 23:00:00 16.2 C 10.62 g/m*3 16.2 C 0 km/h
278 13-05-2017 23:05:00 16.2 C 10.62 g/m*3 16.2 C 0 km/h
279 13-05-2017 23:10:00 16.2 C 10.89 g/m*3 16.2 C 0 km/h
280 13-05-2017 23:15:00 16.1 C 10.83 g/m*3 16.1 C 1.6 km/h
281 13-05-2017 23:20:00 16 C 10.63 g/m*3 16 C 3.2 km/h
282 13-05-2017 23:25:00 16 C 10.63 g/m*3 16 C 3.2 km/h
283 13-05-2017 23:30:00 15.9 C 10.7 g/m*3 15.9 C 0 km/h
284 13-05-2017 23:35:00 15.8 C 10.63 g/m*3 15.8 C 6.4 km/h
285 13-05-2017 23:40:00 15.8 C 10.77 g/m*3 15.8 C 1.6 km/h
286 13-05-2017 23:45:00 15.7 C 10.7 g/m*3 15.7 C 4.8 km/h
287 13-05-2017 23:50:00 15.7 C 10.7 g/m*3 15.7 C 0 km/h
288 13-05-2017 23:55:00 15.6 C 10.77 g/m*3 15.6 C 0 km/h
289 14-05-2017 00:00:00 15.4 C 10.77 g/m*3 15.4 C 0 km/h
290 14-05-2017 00:05:00 15.3 C 10.71 g/m*3 15.3 C 0 km/h
291 14-05-2017 00:10:00 15.2 C 10.77 g/m*3 15.2 C 1.6 km/h
292 14-05-2017 00:15:00 15.1 C 10.58 g/m*3 15.1 C 0 km/h
293 14-05-2017 00:20:00 15 C 10.51 g/m*3 15 C 0 km/h
294 14-05-2017 00:25:00 14.9 C 10.58 g/m*3 14.9 C 0 km/h
295 14-05-2017 00:30:00 14.8 C 10.51 g/m*3 14.8 C 0 km/h
296 14-05-2017 00:35:00 14.7 C 10.58 g/m*3 14.7 C 0 km/h
297 14-05-2017 00:40:00 14.7 C 10.58 g/m*3 14.7 C 0 km/h
298 14-05-2017 00:45:00 14.6 C 10.51 g/m*3 14.6 C 0 km/h
299 14-05-2017 00:50:00 14.5 C 10.45 g/m*3 14.5 C 0 km/h
300 14-05-2017 00:55:00 14.4 C 10.51 g/m*3 14.4 C 0 km/h
Sensor: Nr:Datum:Temp:Abs-Feuchte:Windchill:Wind:
Aussen-T/F 301 14-05-2017 01:00:00 14.4 C 10.51 g/m*3 14.4 C 0 km/h
302 14-05-2017 01:05:00 14.4 C 10.51 g/m*3 14.4 C 0 km/h
303 14-05-2017 01:10:00 14.4 C 10.63 g/m*3 14.4 C 0 km/h
304 14-05-2017 01:15:00 14.4 C 10.63 g/m*3 14.4 C 0 km/h
305 14-05-2017 01:20:00 14.4 C 10.63 g/m*3 14.4 C 0 km/h
306 14-05-2017 01:25:00 14.4 C 10.63 g/m*3 14.4 C 0 km/h
307 14-05-2017 01:30:00 14.4 C 10.63 g/m*3 14.4 C 0 km/h
308 14-05-2017 01:35:00 14.3 C 10.57 g/m*3 14.3 C 0 km/h
309 14-05-2017 01:40:00 14.3 C 10.69 g/m*3 14.3 C 0 km/h
310 14-05-2017 01:45:00 14.2 C 10.62 g/m*3 14.2 C 0 km/h
311 14-05-2017 01:50:00 14.2 C 10.62 g/m*3 14.2 C 0 km/h
312 14-05-2017 01:55:00 14.1 C 10.56 g/m*3 14.1 C 0 km/h
313 14-05-2017 02:00:00 14 C 10.49 g/m*3 14 C 0 km/h
314 14-05-2017 02:05:00 13.9 C 10.55 g/m*3 13.9 C 0 km/h
315 14-05-2017 02:10:00 13.9 C 10.55 g/m*3 13.9 C 0 km/h
316 14-05-2017 02:15:00 13.8 C 10.48 g/m*3 13.8 C 0 km/h
317 14-05-2017 02:20:00 13.8 C 10.6 g/m*3 13.8 C 0 km/h
318 14-05-2017 02:25:00 13.8 C 10.6 g/m*3 13.8 C 0 km/h
319 14-05-2017 02:30:00 13.8 C 10.6 g/m*3 13.8 C 0 km/h
320 14-05-2017 02:35:00 13.8 C 10.6 g/m*3 13.8 C 0 km/h
321 14-05-2017 02:40:00 13.8 C 10.6 g/m*3 13.8 C 0 km/h
322 14-05-2017 02:45:00 13.7 C 10.54 g/m*3 13.7 C 0 km/h
323 14-05-2017 02:50:00 13.7 C 10.54 g/m*3 13.7 C 0 km/h
324 14-05-2017 02:55:00 13.6 C 10.47 g/m*3 13.6 C 0 km/h
325 14-05-2017 03:00:00 13.6 C 10.47 g/m*3 13.6 C 0 km/h
Sensor: Nr:Datum:Temp:Abs-Feuchte:Windchill:Wind:
Aussen-T/F 326 14-05-2017 03:05:00 13.5 C 10.41 g/m*3 13.5 C 0 km/h
327 14-05-2017 03:10:00 13.4 C 10.46 g/m*3 13.4 C 0 km/h
328 14-05-2017 03:15:00 13.4 C 10.46 g/m*3 13.4 C 0 km/h
329 14-05-2017 03:20:00 13.4 C 10.46 g/m*3 13.4 C 0 km/h
330 14-05-2017 03:25:00 13.4 C 10.46 g/m*3 13.4 C 0 km/h
331 14-05-2017 03:30:00 13.4 C 10.46 g/m*3 13.4 C 0 km/h
332 14-05-2017 03:35:00 13.4 C 10.46 g/m*3 13.4 C 0 km/h
333 14-05-2017 03:40:00 13.4 C 10.46 g/m*3 13.4 C 0 km/h
334 14-05-2017 03:45:00 13.3 C 10.4 g/m*3 13.3 C 0 km/h
335 14-05-2017 03:50:00 13.3 C 10.4 g/m*3 13.3 C 0 km/h
336 14-05-2017 03:55:00 13.2 C 10.33 g/m*3 13.2 C 0 km/h
337 14-05-2017 04:00:00 13.2 C 10.33 g/m*3 13.2 C 0 km/h
338 14-05-2017 04:05:00 13.2 C 10.33 g/m*3 13.2 C 0 km/h
339 14-05-2017 04:10:00 13.1 C 10.27 g/m*3 13.1 C 3.2 km/h
340 14-05-2017 04:15:00 13.1 C 10.27 g/m*3 13.1 C 3.2 km/h
341 14-05-2017 04:20:00 13 C 10.21 g/m*3 13 C 0 km/h
342 14-05-2017 04:25:00 12.9 C 10.14 g/m*3 12.9 C 0 km/h
343 14-05-2017 04:30:00 12.9 C 10.14 g/m*3 12.9 C 0 km/h
344 14-05-2017 04:35:00 12.8 C 10.08 g/m*3 12.8 C 0 km/h
345 14-05-2017 04:40:00 12.9 C 10.26 g/m*3 12.9 C 0 km/h
346 14-05-2017 04:45:00 12.9 C 10.26 g/m*3 12.9 C 4.8 km/h
347 14-05-2017 04:50:00 12.9 C 10.26 g/m*3 12.9 C 4.8 km/h
348 14-05-2017 04:55:00 12.9 C 10.26 g/m*3 12.9 C 0 km/h
349 14-05-2017 05:00:00 12.9 C 10.26 g/m*3 12.9 C 0 km/h
350 14-05-2017 05:05:00 12.9 C 10.26 g/m*3 12.9 C 0 km/h
Sensor: Nr:Datum:Temp:Abs-Feuchte:Windchill:Wind:
Aussen-T/F 351 14-05-2017 05:10:00 12.9 C 10.26 g/m*3 12.9 C 3.2 km/h
352 14-05-2017 05:15:00 12.9 C 10.26 g/m*3 12.9 C 1.6 km/h
353 14-05-2017 05:20:00 12.9 C 10.26 g/m*3 12.9 C 3.2 km/h
354 14-05-2017 05:25:00 12.9 C 10.26 g/m*3 12.9 C 4.8 km/h
355 14-05-2017 05:30:00 12.9 C 10.14 g/m*3 12.9 C 4.8 km/h
356 14-05-2017 05:35:00 12.9 C 10.14 g/m*3 12.9 C 1.6 km/h
357 14-05-2017 05:40:00 12.9 C 10.14 g/m*3 12.9 C 4.8 km/h
358 14-05-2017 05:45:00 12.9 C 10.14 g/m*3 12.9 C 1.6 km/h
359 14-05-2017 05:50:00 13 C 10.21 g/m*3 13 C 4.8 km/h
360 14-05-2017 05:55:00 12.9 C 10.14 g/m*3 12.9 C 1.6 km/h
361 14-05-2017 06:00:00 12.9 C 10.14 g/m*3 12.9 C 1.6 km/h
362 14-05-2017 06:05:00 12.9 C 10.14 g/m*3 12.9 C 0 km/h
363 14-05-2017 06:10:00 12.8 C 10.08 g/m*3 12.8 C 0 km/h
364 14-05-2017 06:15:00 12.8 C 10.08 g/m*3 12.8 C 0 km/h
365 14-05-2017 06:20:00 12.7 C 10.02 g/m*3 12.7 C 0 km/h
366 14-05-2017 06:25:00 12.6 C 9.96 g/m*3 12.6 C 1.6 km/h
367 14-05-2017 06:30:00 12.5 C 9.89 g/m*3 12.5 C 0 km/h
368 14-05-2017 06:35:00 12.4 C 9.94 g/m*3 12.4 C 0 km/h
369 14-05-2017 06:40:00 12.3 C 9.88 g/m*3 12.3 C 0 km/h
370 14-05-2017 06:45:00 12.3 C 9.88 g/m*3 12.3 C 0 km/h
371 14-05-2017 06:50:00 12.2 C 9.82 g/m*3 12.2 C 0 km/h
372 14-05-2017 06:55:00 12.2 C 9.93 g/m*3 12.2 C 0 km/h
373 14-05-2017 07:00:00 12.3 C 9.99 g/m*3 12.3 C 0 km/h
374 14-05-2017 07:05:00 12.3 C 9.99 g/m*3 12.3 C 0 km/h
375 14-05-2017 07:10:00 12.4 C 10.16 g/m*3 12.4 C 0 km/h
Sensor: Nr:Datum:Temp:Abs-Feuchte:Windchill:Wind:
Aussen-T/F 376 14-05-2017 07:15:00 12.4 C 10.05 g/m*3 12.4 C 0 km/h
377 14-05-2017 07:20:00 12.4 C 10.05 g/m*3 12.4 C 0 km/h
378 14-05-2017 07:25:00 12.3 C 9.99 g/m*3 12.3 C 0 km/h
379 14-05-2017 07:30:00 12.3 C 9.99 g/m*3 12.3 C 0 km/h
380 14-05-2017 07:35:00 12.3 C 10.1 g/m*3 12.3 C 0 km/h
381 14-05-2017 07:40:00 12.3 C 10.1 g/m*3 12.3 C 0 km/h
382 14-05-2017 07:45:00 12.3 C 10.1 g/m*3 12.3 C 0 km/h
383 14-05-2017 07:50:00 12.3 C 10.1 g/m*3 12.3 C 0 km/h
384 14-05-2017 07:55:00 12.3 C 10.1 g/m*3 12.3 C 0 km/h
385 14-05-2017 08:00:00 12.3 C 10.1 g/m*3 12.3 C 0 km/h
386 14-05-2017 08:05:00 12.3 C 10.1 g/m*3 12.3 C 0 km/h
387 14-05-2017 08:10:00 12.4 C 10.16 g/m*3 12.4 C 0 km/h
388 14-05-2017 08:15:00 12.5 C 10.22 g/m*3 12.5 C 3.2 km/h
389 14-05-2017 08:20:00 12.6 C 10.4 g/m*3 12.6 C 1.6 km/h
390 14-05-2017 08:25:00 12.8 C 10.53 g/m*3 12.8 C 0 km/h
391 14-05-2017 08:30:00 12.9 C 10.59 g/m*3 12.9 C 3.2 km/h
392 14-05-2017 08:35:00 13.1 C 10.73 g/m*3 13.1 C 4.8 km/h
393 14-05-2017 08:40:00 13.3 C 10.86 g/m*3 13.3 C 3.2 km/h
394 14-05-2017 08:45:00 13.4 C 10.93 g/m*3 13.4 C 6.4 km/h
395 14-05-2017 08:50:00 13.7 C 11.13 g/m*3 13.7 C 8.1 km/h
396 14-05-2017 08:55:00 13.9 C 11.27 g/m*3 13.9 C 1.6 km/h
397 14-05-2017 09:00:00 14.1 C 11.41 g/m*3 14.1 C 4.8 km/h
398 14-05-2017 09:05:00 14.3 C 11.43 g/m*3 14.3 C 6.4 km/h
399 14-05-2017 09:10:00 14.5 C 11.57 g/m*3 14.5 C 4.8 km/h
400 14-05-2017 09:15:00 14.7 C 11.58 g/m*3 14.7 C 3.2 km/h
Sensor: Nr:Datum:Temp:Abs-Feuchte:Windchill:Wind:
Aussen-T/F 401 14-05-2017 09:20:00 14.9 C 11.6 g/m*3 14.9 C 3.2 km/h
402 14-05-2017 09:25:00 15 C 11.67 g/m*3 15 C 4.8 km/h
403 14-05-2017 09:30:00 15.2 C 11.68 g/m*3 15.2 C 4.8 km/h
404 14-05-2017 09:35:00 15.3 C 11.62 g/m*3 15.3 C 4.8 km/h
405 14-05-2017 09:40:00 15.6 C 11.7 g/m*3 15.6 C 3.2 km/h
406 14-05-2017 09:45:00 15.9 C 11.78 g/m*3 15.9 C 4.8 km/h
407 14-05-2017 09:50:00 16.3 C 11.79 g/m*3 16.3 C 8.1 km/h
408 14-05-2017 09:55:00 16.7 C 11.94 g/m*3 16.7 C 1.6 km/h
409 14-05-2017 10:00:00 17.2 C 12.01 g/m*3 17.2 C 6.4 km/h
410 14-05-2017 10:05:00 17.7 C 11.92 g/m*3 17.7 C 11.3 km/h
411 14-05-2017 10:10:00 18.1 C 11.9 g/m*3 18.1 C 14.5 km/h
412 14-05-2017 10:15:00 18.3 C 11.73 g/m*3 18.3 C 9.7 km/h
413 14-05-2017 10:20:00 18.6 C 12.26 g/m*3 18.6 C 9.7 km/h
414 14-05-2017 10:25:00 18.7 C 11.53 g/m*3 18.7 C 11.3 km/h
415 14-05-2017 10:30:00 18.7 C 11.69 g/m*3 18.7 C 8.1 km/h
416 14-05-2017 10:35:00 18.7 C 11.85 g/m*3 18.7 C 4.8 km/h
417 14-05-2017 10:40:00 18.8 C 11.6 g/m*3 18.8 C 8.1 km/h
418 14-05-2017 10:45:00 18.9 C 11.83 g/m*3 18.9 C 6.4 km/h
419 14-05-2017 10:50:00 19.1 C 11.64 g/m*3 19.1 C 8.1 km/h
420 14-05-2017 10:55:00 19.1 C 11.31 g/m*3 19.1 C 6.4 km/h
421 14-05-2017 11:00:00 19.2 C 10.88 g/m*3 19.2 C 12.9 km/h
422 14-05-2017 11:05:00 19.2 C 11.05 g/m*3 19.2 C 11.3 km/h
423 14-05-2017 11:10:00 19.1 C 10.98 g/m*3 19.1 C 11.3 km/h
424 14-05-2017 11:15:00 19.1 C 11.47 g/m*3 19.1 C 8.1 km/h
425 14-05-2017 11:20:00 19.1 C 11.31 g/m*3 19.1 C 9.7 km/h
Sensor: Nr:Datum:Temp:Abs-Feuchte:Windchill:Wind:
Aussen-T/F 426 14-05-2017 11:25:00 19 C 10.92 g/m*3 19 C 8.1 km/h
427 14-05-2017 11:30:00 19 C 11.24 g/m*3 19 C 6.4 km/h
428 14-05-2017 11:35:00 19.1 C 11.15 g/m*3 19.1 C 6.4 km/h
429 14-05-2017 11:40:00 19.2 C 11.21 g/m*3 19.2 C 6.4 km/h
430 14-05-2017 11:45:00 19.2 C 11.05 g/m*3 19.2 C 9.7 km/h
431 14-05-2017 11:50:00 19.3 C 10.62 g/m*3 19.3 C 8.1 km/h
432 14-05-2017 11:55:00 19.5 C 10.91 g/m*3 19.5 C 8.1 km/h
433 14-05-2017 12:00:00 19.7 C 10.53 g/m*3 19.7 C 12.9 km/h
434 14-05-2017 12:05:00 19.9 C 10.48 g/m*3 19.9 C 11.3 km/h
435 14-05-2017 12:10:00 20.2 C 10.67 g/m*3 20.2 C 11.3 km/h
436 14-05-2017 12:15:00 20.3 C 10.55 g/m*3 20.3 C 12.9 km/h
437 14-05-2017 12:20:00 20.3 C 10.38 g/m*3 20.3 C 22.5 km/h
438 14-05-2017 12:25:00 19.6 C 10.47 g/m*3 19.6 C 22.5 km/h
439 14-05-2017 12:30:00 18.8 C 10.63 g/m*3 18.8 C 9.7 km/h
440 14-05-2017 12:35:00 18.2 C 10.57 g/m*3 18.2 C 16.1 km/h
441 14-05-2017 12:40:00 17.9 C 10.69 g/m*3 17.9 C 8.1 km/h
442 14-05-2017 12:45:00 17.7 C 11.16 g/m*3 17.7 C 11.3 km/h
443 14-05-2017 12:50:00 17.6 C 11.1 g/m*3 17.6 C 11.3 km/h
444 14-05-2017 12:55:00 17.6 C 11.25 g/m*3 17.6 C 8.1 km/h
445 14-05-2017 13:00:00 17.5 C 11.48 g/m*3 17.5 C 6.4 km/h
446 14-05-2017 13:05:00 17.4 C 11.41 g/m*3 17.4 C 11.3 km/h
447 14-05-2017 13:10:00 17.4 C 11.41 g/m*3 17.4 C 9.7 km/h
448 14-05-2017 13:15:00 17.4 C 11.41 g/m*3 17.4 C 4.8 km/h
449 14-05-2017 13:20:00 17.6 C 11.1 g/m*3 17.6 C 6.4 km/h
450 14-05-2017 13:25:00 17.7 C 11.32 g/m*3 17.7 C 4.8 km/h
Sensor: Nr:Datum:Temp:Abs-Feuchte:Windchill:Wind:
Aussen-T/F 451 14-05-2017 13:30:00 17.8 C 11.38 g/m*3 17.8 C 3.2 km/h
452 14-05-2017 13:35:00 17.9 C 11.45 g/m*3 17.9 C 4.8 km/h
453 14-05-2017 13:40:00 18 C 11.52 g/m*3 18 C 4.8 km/h
454 14-05-2017 13:45:00 18.1 C 11.43 g/m*3 18.1 C 4.8 km/h
455 14-05-2017 13:50:00 18.2 C 11.66 g/m*3 18.2 C 1.6 km/h
456 14-05-2017 13:55:00 18.3 C 11.57 g/m*3 18.3 C 3.2 km/h
457 14-05-2017 14:00:00 18.4 C 11.64 g/m*3 18.4 C 3.2 km/h
458 14-05-2017 14:05:00 18.6 C 11.46 g/m*3 18.6 C 4.8 km/h
459 14-05-2017 14:10:00 18.7 C 11.37 g/m*3 18.7 C 3.2 km/h
460 14-05-2017 14:15:00 18.8 C 11.27 g/m*3 18.8 C 8.1 km/h
461 14-05-2017 14:20:00 18.9 C 11.18 g/m*3 18.9 C 8.1 km/h
462 14-05-2017 14:25:00 19.2 C 10.88 g/m*3 19.2 C 11.3 km/h
463 14-05-2017 14:30:00 19.4 C 11.35 g/m*3 19.4 C 8.1 km/h
464 14-05-2017 14:35:00 19.4 C 10.68 g/m*3 19.4 C 9.7 km/h
465 14-05-2017 14:40:00 19.6 C 11.31 g/m*3 19.6 C 6.4 km/h
466 14-05-2017 14:45:00 19.7 C 11.21 g/m*3 19.7 C 8.1 km/h
467 14-05-2017 14:50:00 20 C 11.06 g/m*3 20 C 4.8 km/h
468 14-05-2017 14:55:00 20.1 C 10.95 g/m*3 20.1 C 8.1 km/h
469 14-05-2017 15:00:00 20.3 C 11.08 g/m*3 20.3 C 8.1 km/h
470 14-05-2017 15:05:00 20.7 C 11.16 g/m*3 20.7 C 11.3 km/h
471 14-05-2017 15:10:00 21.1 C 11.61 g/m*3 21.1 C 11.3 km/h
472 14-05-2017 15:15:00 21.5 C 11.88 g/m*3 21.5 C 9.7 km/h
473 14-05-2017 15:20:00 21.7 C 11.45 g/m*3 21.7 C 9.7 km/h
474 14-05-2017 15:25:00 22.1 C 11.32 g/m*3 22.1 C 9.7 km/h
475 14-05-2017 15:30:00 22.6 C 11.45 g/m*3 22.6 C 9.7 km/h
Sensor: Nr:Datum:Temp:Abs-Feuchte:Windchill:Wind:
Aussen-T/F 476 14-05-2017 15:35:00 22.7 C 11.31 g/m*3 22.7 C 16.1 km/h
477 14-05-2017 15:40:00 23 C 11.51 g/m*3 23 C 16.1 km/h
478 14-05-2017 15:45:00 23.3 C 11.08 g/m*3 23.3 C 11.3 km/h
479 14-05-2017 15:50:00 23.3 C 10.66 g/m*3 23.3 C 11.3 km/h
480 14-05-2017 15:55:00 22.7 C 10.91 g/m*3 22.7 C 8.1 km/h
481 14-05-2017 16:00:00 22.1 C 11.32 g/m*3 22.1 C 11.3 km/h
482 14-05-2017 16:05:00 21.8 C 12.09 g/m*3 21.8 C 4.8 km/h
483 14-05-2017 16:10:00 21.8 C 11.32 g/m*3 21.8 C 11.3 km/h
484 14-05-2017 16:15:00 22.3 C 11.06 g/m*3 22.3 C 8.1 km/h
485 14-05-2017 16:20:00 22.7 C 10.3 g/m*3 22.7 C 12.9 km/h
486 14-05-2017 16:25:00 22.4 C 10.53 g/m*3 22.4 C 11.3 km/h
487 14-05-2017 16:30:00 22.2 C 10.6 g/m*3 22.2 C 8.1 km/h
488 14-05-2017 16:35:00 21.6 C 12.71 g/m*3 21.6 C 19.3 km/h
489 14-05-2017 16:40:00 21.4 C 14.25 g/m*3 21.4 C 1.6 km/h
490 14-05-2017 16:45:00 21.7 C 15.07 g/m*3 21.7 C 0 km/h
491 14-05-2017 16:50:00 22.1 C 14.45 g/m*3 22.1 C 1.6 km/h
492 14-05-2017 16:55:00 22.3 C 15.01 g/m*3 22.3 C 0 km/h
493 14-05-2017 17:00:00 22.2 C 14.14 g/m*3 22.2 C 1.6 km/h
494 14-05-2017 17:05:00 21.8 C 14.2 g/m*3 21.8 C 3.2 km/h
495 14-05-2017 17:10:00 21.3 C 13.98 g/m*3 21.3 C 1.6 km/h
496 14-05-2017 17:15:00 20.8 C 13.58 g/m*3 20.8 C 3.2 km/h
497 14-05-2017 17:20:00 20.5 C 12.99 g/m*3 20.5 C 3.2 km/h
498 14-05-2017 17:25:00 20.3 C 13.19 g/m*3 20.3 C 1.6 km/h
499 14-05-2017 17:30:00 20.1 C 13.39 g/m*3 20.1 C 3.2 km/h
500 14-05-2017 17:35:00 19.8 C 12.64 g/m*3 19.8 C 3.2 km/h
Sensor: Nr:Datum:Temp:Abs-Feuchte:Windchill:Wind:
Aussen-T/F 501 14-05-2017 17:40:00 19.4 C 12.51 g/m*3 19.4 C 0 km/h
502 14-05-2017 17:45:00 19.2 C 12.7 g/m*3 19.2 C 1.6 km/h
503 14-05-2017 17:50:00 18.9 C 11.02 g/m*3 18.9 C 8.1 km/h
504 14-05-2017 17:55:00 18.9 C 12.64 g/m*3 18.9 C 1.6 km/h
505 14-05-2017 18:00:00 18.7 C 12.49 g/m*3 18.7 C 1.6 km/h
506 14-05-2017 18:05:00 18.3 C 12.51 g/m*3 18.3 C 1.6 km/h
507 14-05-2017 18:10:00 18 C 12.29 g/m*3 18 C 3.2 km/h
508 14-05-2017 18:15:00 17.8 C 12.45 g/m*3 17.8 C 1.6 km/h
509 14-05-2017 18:20:00 17.8 C 12.45 g/m*3 17.8 C 0 km/h
510 14-05-2017 18:25:00 17.7 C 12.52 g/m*3 17.7 C 0 km/h
511 14-05-2017 18:30:00 17.7 C 12.37 g/m*3 17.7 C 0 km/h
512 14-05-2017 18:35:00 17.7 C 12.37 g/m*3 17.7 C 1.6 km/h
513 14-05-2017 18:40:00 17.7 C 12.52 g/m*3 17.7 C 0 km/h
514 14-05-2017 18:45:00 17.7 C 12.52 g/m*3 17.7 C 0 km/h
515 14-05-2017 18:50:00 17.7 C 12.37 g/m*3 17.7 C 0 km/h
516 14-05-2017 18:55:00 17.8 C 12.6 g/m*3 17.8 C 0 km/h
517 14-05-2017 19:00:00 17.8 C 12.45 g/m*3 17.8 C 0 km/h
518 14-05-2017 19:05:00 17.8 C 12.45 g/m*3 17.8 C 1.6 km/h
519 14-05-2017 19:10:00 17.9 C 12.52 g/m*3 17.9 C 0 km/h
520 14-05-2017 19:15:00 18 C 12.75 g/m*3 18 C 0 km/h
521 14-05-2017 19:20:00 18.1 C 12.67 g/m*3 18.1 C 0 km/h
522 14-05-2017 19:25:00 18.2 C 12.75 g/m*3 18.2 C 0 km/h
523 14-05-2017 19:30:00 18.2 C 12.43 g/m*3 18.2 C 0 km/h
524 14-05-2017 19:35:00 18.2 C 12.43 g/m*3 18.2 C 3.2 km/h
525 14-05-2017 19:40:00 18.4 C 11.17 g/m*3 18.4 C 9.7 km/h
Sensor: Nr:Datum:Temp:Abs-Feuchte:Windchill:Wind:
Aussen-T/F 526 14-05-2017 19:45:00 18.7 C 10.89 g/m*3 18.7 C 12.9 km/h
527 14-05-2017 19:50:00 18.8 C 10.79 g/m*3 18.8 C 11.3 km/h
528 14-05-2017 19:55:00 18.8 C 10.95 g/m*3 18.8 C 8.1 km/h
529 14-05-2017 20:00:00 18.8 C 11.11 g/m*3 18.8 C 8.1 km/h
530 14-05-2017 20:05:00 18.7 C 11.21 g/m*3 18.7 C 6.4 km/h
531 14-05-2017 20:10:00 18.6 C 11.46 g/m*3 18.6 C 4.8 km/h
532 14-05-2017 20:15:00 18.4 C 11.48 g/m*3 18.4 C 0 km/h
533 14-05-2017 20:20:00 18.3 C 11.73 g/m*3 18.3 C 0 km/h
534 14-05-2017 20:25:00 18.1 C 11.43 g/m*3 18.1 C 3.2 km/h
535 14-05-2017 20:30:00 17.9 C 11.45 g/m*3 17.9 C 6.4 km/h
536 14-05-2017 20:35:00 17.8 C 11.84 g/m*3 17.8 C 1.6 km/h
537 14-05-2017 20:40:00 17.7 C 11.77 g/m*3 17.7 C 0 km/h
538 14-05-2017 20:45:00 17.4 C 11.41 g/m*3 17.4 C 1.6 km/h
539 14-05-2017 20:50:00 17.2 C 11.57 g/m*3 17.2 C 1.6 km/h
540 14-05-2017 20:55:00 17.1 C 11.65 g/m*3 17.1 C 3.2 km/h
541 14-05-2017 21:00:00 16.8 C 11.15 g/m*3 16.8 C 12.9 km/h
542 14-05-2017 21:05:00 16.4 C 10.75 g/m*3 16.4 C 11.3 km/h
543 14-05-2017 21:10:00 16.1 C 10.83 g/m*3 16.1 C 12.9 km/h
544 14-05-2017 21:15:00 15.8 C 10.77 g/m*3 15.8 C 11.3 km/h
545 14-05-2017 21:20:00 15.5 C 10.57 g/m*3 15.5 C 9.7 km/h
546 14-05-2017 21:25:00 15.3 C 10.58 g/m*3 15.3 C 6.4 km/h
547 14-05-2017 21:30:00 15.1 C 10.84 g/m*3 15.1 C 0 km/h
548 14-05-2017 21:35:00 14.9 C 10.96 g/m*3 14.9 C 0 km/h
549 14-05-2017 21:40:00 14.8 C 10.89 g/m*3 14.8 C 0 km/h
550 14-05-2017 21:45:00 14.6 C 10.89 g/m*3 14.6 C 1.6 km/h
Sensor: Nr:Datum:Temp:Abs-Feuchte:Windchill:Wind:
Aussen-T/F 551 14-05-2017 21:50:00 14.3 C 10.81 g/m*3 14.3 C 1.6 km/h
552 14-05-2017 21:55:00 14.1 C 10.8 g/m*3 14.1 C 1.6 km/h
553 14-05-2017 22:00:00 13.9 C 10.67 g/m*3 13.9 C 1.6 km/h
554 14-05-2017 22:05:00 13.8 C 10.72 g/m*3 13.8 C 3.2 km/h
555 14-05-2017 22:10:00 13.7 C 10.66 g/m*3 13.7 C 1.6 km/h
556 14-05-2017 22:15:00 13.6 C 10.59 g/m*3 13.6 C 1.6 km/h
557 14-05-2017 22:20:00 13.5 C 10.53 g/m*3 13.5 C 0 km/h
558 14-05-2017 22:25:00 13.3 C 10.4 g/m*3 13.3 C 1.6 km/h
559 14-05-2017 22:30:00 13.2 C 10.45 g/m*3 13.2 C 1.6 km/h
560 14-05-2017 22:35:00 13.2 C 10.45 g/m*3 13.2 C 0 km/h
561 14-05-2017 22:40:00 13.1 C 10.38 g/m*3 13.1 C 0 km/h
562 14-05-2017 22:45:00 12.9 C 10.26 g/m*3 12.9 C 0 km/h
563 14-05-2017 22:50:00 12.8 C 10.19 g/m*3 12.8 C 0 km/h
564 14-05-2017 22:55:00 12.7 C 10.13 g/m*3 12.7 C 0 km/h
565 14-05-2017 23:00:00 12.5 C 10 g/m*3 12.5 C 0 km/h
566 14-05-2017 23:05:00 12.4 C 9.94 g/m*3 12.4 C 0 km/h
567 14-05-2017 23:10:00 12.3 C 9.88 g/m*3 12.3 C 0 km/h
568 14-05-2017 23:15:00 12.2 C 9.93 g/m*3 12.2 C 0 km/h
569 14-05-2017 23:20:00 12.1 C 9.87 g/m*3 12.1 C 0 km/h
570 14-05-2017 23:25:00 12 C 9.8 g/m*3 12 C 0 km/h
571 14-05-2017 23:30:00 11.9 C 9.74 g/m*3 11.9 C 0 km/h
572 14-05-2017 23:35:00 11.8 C 9.68 g/m*3 11.8 C 0 km/h
573 14-05-2017 23:40:00 11.8 C 9.79 g/m*3 11.8 C 0 km/h
574 14-05-2017 23:45:00 11.7 C 9.73 g/m*3 11.7 C 0 km/h
575 14-05-2017 23:50:00 11.7 C 9.73 g/m*3 11.7 C 0 km/h
Sensor: Nr:Datum:Temp:Abs-Feuchte:Windchill:Wind:
Aussen-T/F 576 14-05-2017 23:55:00 11.7 C 9.73 g/m*3 11.7 C 0 km/h
577 15-05-2017 00:00:00 11.7 C 9.73 g/m*3 11.7 C 0 km/h
578 15-05-2017 00:05:00 11.6 C 9.67 g/m*3 11.6 C 0 km/h
579 15-05-2017 00:10:00 11.6 C 9.67 g/m*3 11.6 C 0 km/h
580 15-05-2017 00:15:00 11.5 C 9.71 g/m*3 11.5 C 0 km/h
581 15-05-2017 00:20:00 11.5 C 9.71 g/m*3 11.5 C 0 km/h
582 15-05-2017 00:25:00 11.4 C 9.65 g/m*3 11.4 C 3.2 km/h
583 15-05-2017 00:30:00 11.4 C 9.65 g/m*3 11.4 C 0 km/h
584 15-05-2017 00:35:00 11.3 C 9.59 g/m*3 11.3 C 0 km/h
585 15-05-2017 00:40:00 11.2 C 9.53 g/m*3 11.2 C 0 km/h
586 15-05-2017 00:45:00 11.2 C 9.53 g/m*3 11.2 C 6.4 km/h
587 15-05-2017 00:50:00 11.2 C 9.53 g/m*3 11.2 C 6.4 km/h
588 15-05-2017 00:55:00 11.1 C 9.47 g/m*3 11.1 C 1.6 km/h
589 15-05-2017 01:00:00 11.1 C 9.47 g/m*3 11.1 C 3.2 km/h
590 15-05-2017 01:05:00 11 C 9.41 g/m*3 11 C 3.2 km/h
591 15-05-2017 01:10:00 11 C 9.41 g/m*3 11 C 0 km/h
592 15-05-2017 01:15:00 11 C 9.41 g/m*3 11 C 3.2 km/h
593 15-05-2017 01:20:00 11 C 9.51 g/m*3 11 C 0 km/h
594 15-05-2017 01:25:00 11 C 9.51 g/m*3 11 C 0 km/h
595 15-05-2017 01:30:00 11 C 9.41 g/m*3 11 C 0 km/h
596 15-05-2017 01:35:00 10.9 C 9.35 g/m*3 10.9 C 0 km/h
597 15-05-2017 01:40:00 10.9 C 9.45 g/m*3 10.9 C 0 km/h
598 15-05-2017 01:45:00 10.9 C 9.45 g/m*3 10.9 C 4.8 km/h
599 15-05-2017 01:50:00 10.9 C 9.45 g/m*3 10.9 C 0 km/h
600 15-05-2017 01:55:00 10.8 C 9.39 g/m*3 10.8 C 0 km/h
Sensor: Nr:Datum:Temp:Abs-Feuchte:Windchill:Wind:
Aussen-T/F 601 15-05-2017 02:00:00 10.7 C 9.23 g/m*3 10.7 C 0 km/h
602 15-05-2017 02:05:00 10.6 C 9.17 g/m*3 10.6 C 0 km/h
603 15-05-2017 02:10:00 10.5 C 9.12 g/m*3 10.5 C 1.6 km/h
604 15-05-2017 02:15:00 10.4 C 9.06 g/m*3 10.4 C 0 km/h
605 15-05-2017 02:20:00 10.3 C 9.1 g/m*3 10.3 C 0 km/h
606 15-05-2017 02:25:00 10.3 C 9.1 g/m*3 10.3 C 1.6 km/h
607 15-05-2017 02:30:00 10.3 C 9.1 g/m*3 10.3 C 0 km/h
608 15-05-2017 02:35:00 10.2 C 9.04 g/m*3 10.2 C 0 km/h
609 15-05-2017 02:40:00 10.2 C 9.04 g/m*3 10.2 C 3.2 km/h
610 15-05-2017 02:45:00 10.2 C 9.04 g/m*3 10.2 C 1.6 km/h
611 15-05-2017 02:50:00 10.1 C 8.98 g/m*3 10.1 C 4.8 km/h
612 15-05-2017 02:55:00 9.9 C 8.87 g/m*3 9.9 C 1.6 km/h
613 15-05-2017 03:00:00 9.9 C 8.87 g/m*3 9.9 C 0 km/h
614 15-05-2017 03:05:00 9.9 C 8.87 g/m*3 9.9 C 0 km/h
615 15-05-2017 03:10:00 9.9 C 8.87 g/m*3 9.9 C 4.8 km/h
616 15-05-2017 03:15:00 9.9 C 8.87 g/m*3 9.9 C 4.8 km/h
617 15-05-2017 03:20:00 10 C 8.93 g/m*3 10 C 3.2 km/h
618 15-05-2017 03:25:00 9.9 C 8.87 g/m*3 9.9 C 1.6 km/h
619 15-05-2017 03:30:00 9.9 C 8.87 g/m*3 9.9 C 0 km/h
620 15-05-2017 03:35:00 9.8 C 8.81 g/m*3 9.8 C 0 km/h
621 15-05-2017 03:40:00 9.8 C 8.81 g/m*3 9.8 C 1.6 km/h
622 15-05-2017 03:45:00 9.8 C 8.81 g/m*3 9.8 C 4.8 km/h
623 15-05-2017 03:50:00 9.8 C 8.81 g/m*3 9.8 C 1.6 km/h
624 15-05-2017 03:55:00 9.7 C 8.76 g/m*3 9.7 C 3.2 km/h
625 15-05-2017 04:00:00 9.6 C 8.7 g/m*3 9.6 C 1.6 km/h
Sensor: Nr:Datum:Temp:Abs-Feuchte:Windchill:Wind:
Aussen-T/F 626 15-05-2017 04:05:00 9.6 C 8.7 g/m*3 9.6 C 3.2 km/h
627 15-05-2017 04:10:00 9.7 C 8.76 g/m*3 9.7 C 4.8 km/h
628 15-05-2017 04:15:00 9.6 C 8.7 g/m*3 9.6 C 3.2 km/h
629 15-05-2017 04:20:00 9.6 C 8.7 g/m*3 9.6 C 0 km/h
630 15-05-2017 04:25:00 9.6 C 8.7 g/m*3 9.6 C 4.8 km/h
631 15-05-2017 04:30:00 9.6 C 8.7 g/m*3 9.6 C 4.8 km/h
632 15-05-2017 04:35:00 9.5 C 8.65 g/m*3 9.5 C 4.8 km/h
633 15-05-2017 04:40:00 9.4 C 8.59 g/m*3 9.4 C 0 km/h
634 15-05-2017 04:45:00 9.3 C 8.54 g/m*3 9.3 C 0 km/h
635 15-05-2017 04:50:00 9.3 C 8.54 g/m*3 9.3 C 0 km/h
636 15-05-2017 04:55:00 9.3 C 8.54 g/m*3 9.3 C 0 km/h
637 15-05-2017 05:00:00 9.3 C 8.54 g/m*3 9.3 C 0 km/h
638 15-05-2017 05:05:00 9.4 C 8.68 g/m*3 9.4 C 0 km/h
639 15-05-2017 05:10:00 9.4 C 8.68 g/m*3 9.4 C 0 km/h
640 15-05-2017 05:15:00 9.4 C 8.59 g/m*3 9.4 C 0 km/h
641 15-05-2017 05:20:00 9.3 C 8.54 g/m*3 9.3 C 0 km/h
642 15-05-2017 05:25:00 9.2 C 8.48 g/m*3 9.2 C 0 km/h
643 15-05-2017 05:30:00 9.1 C 8.43 g/m*3 9.1 C 0 km/h
644 15-05-2017 05:35:00 9 C 8.38 g/m*3 9 C 0 km/h
645 15-05-2017 05:40:00 8.9 C 8.32 g/m*3 8.9 C 0 km/h
646 15-05-2017 05:45:00 9.1 C 8.52 g/m*3 9.1 C 1.6 km/h
647 15-05-2017 05:50:00 9.1 C 8.52 g/m*3 9.1 C 0 km/h
648 15-05-2017 05:55:00 9.1 C 8.52 g/m*3 9.1 C 0 km/h
649 15-05-2017 06:00:00 9 C 8.38 g/m*3 9 C 0 km/h
650 15-05-2017 06:05:00 8.9 C 8.32 g/m*3 8.9 C 0 km/h
Sensor: Nr:Datum:Temp:Abs-Feuchte:Windchill:Wind:
Aussen-T/F 651 15-05-2017 06:10:00 8.8 C 8.27 g/m*3 8.8 C 0 km/h
652 15-05-2017 06:15:00 8.7 C 8.22 g/m*3 8.7 C 0 km/h
653 15-05-2017 06:20:00 8.7 C 8.22 g/m*3 8.7 C 0 km/h
654 15-05-2017 06:25:00 8.6 C 8.16 g/m*3 8.6 C 0 km/h
655 15-05-2017 06:30:00 8.6 C 8.16 g/m*3 8.6 C 0 km/h
656 15-05-2017 06:35:00 8.6 C 8.16 g/m*3 8.6 C 0 km/h
657 15-05-2017 06:40:00 8.6 C 8.25 g/m*3 8.6 C 0 km/h
658 15-05-2017 06:45:00 8.7 C 8.3 g/m*3 8.7 C 0 km/h
659 15-05-2017 06:50:00 8.7 C 8.3 g/m*3 8.7 C 1.6 km/h
660 15-05-2017 06:55:00 8.8 C 8.36 g/m*3 8.8 C 0 km/h
661 15-05-2017 07:00:00 8.9 C 8.41 g/m*3 8.9 C 0 km/h
662 15-05-2017 07:05:00 9.1 C 8.52 g/m*3 9.1 C 0 km/h
663 15-05-2017 07:10:00 9.2 C 8.57 g/m*3 9.2 C 0 km/h
664 15-05-2017 07:15:00 9.3 C 8.63 g/m*3 9.3 C 1.6 km/h
665 15-05-2017 07:20:00 9.3 C 8.63 g/m*3 9.3 C 0 km/h
666 15-05-2017 07:25:00 9.3 C 8.63 g/m*3 9.3 C 1.6 km/h
667 15-05-2017 07:30:00 9.3 C 8.63 g/m*3 9.3 C 0 km/h
668 15-05-2017 07:35:00 9.4 C 8.68 g/m*3 9.4 C 0 km/h
669 15-05-2017 07:40:00 9.4 C 8.68 g/m*3 9.4 C 0 km/h
670 15-05-2017 07:45:00 9.6 C 8.79 g/m*3 9.6 C 0 km/h
671 15-05-2017 07:50:00 9.8 C 8.91 g/m*3 9.8 C 0 km/h
672 15-05-2017 07:55:00 10 C 9.11 g/m*3 10 C 0 km/h
673 15-05-2017 08:00:00 10.2 C 9.14 g/m*3 10.2 C 0 km/h
674 15-05-2017 08:05:00 10.3 C 9.19 g/m*3 10.3 C 0 km/h
675 15-05-2017 08:10:00 10.4 C 9.35 g/m*3 10.4 C 0 km/h
Sensor: Nr:Datum:Temp:Abs-Feuchte:Windchill:Wind:
Aussen-T/F 676 15-05-2017 08:15:00 10.5 C 9.31 g/m*3 10.5 C 0 km/h
677 15-05-2017 08:20:00 10.6 C 9.37 g/m*3 10.6 C 0 km/h
678 15-05-2017 08:25:00 10.8 C 9.59 g/m*3 10.8 C 0 km/h
679 15-05-2017 08:30:00 10.8 C 9.49 g/m*3 10.8 C 0 km/h
680 15-05-2017 08:35:00 11 C 9.61 g/m*3 11 C 0 km/h
681 15-05-2017 08:40:00 11.2 C 9.73 g/m*3 11.2 C 1.6 km/h
682 15-05-2017 08:45:00 11.4 C 9.96 g/m*3 11.4 C 3.2 km/h
683 15-05-2017 08:50:00 11.4 C 9.85 g/m*3 11.4 C 1.6 km/h
684 15-05-2017 08:55:00 11.5 C 9.92 g/m*3 11.5 C 3.2 km/h
685 15-05-2017 09:00:00 11.6 C 9.98 g/m*3 11.6 C 1.6 km/h
686 15-05-2017 09:05:00 11.8 C 10.1 g/m*3 11.8 C 3.2 km/h
687 15-05-2017 09:10:00 11.9 C 10.06 g/m*3 11.9 C 3.2 km/h
688 15-05-2017 09:15:00 12 C 10.12 g/m*3 12 C 1.6 km/h
689 15-05-2017 09:20:00 12.2 C 10.25 g/m*3 12.2 C 1.6 km/h
690 15-05-2017 09:25:00 12.3 C 10.32 g/m*3 12.3 C 0 km/h
691 15-05-2017 09:30:00 12.6 C 10.51 g/m*3 12.6 C 3.2 km/h
692 15-05-2017 09:35:00 12.7 C 10.46 g/m*3 12.7 C 0 km/h
693 15-05-2017 09:40:00 12.8 C 10.42 g/m*3 12.8 C 1.6 km/h
694 15-05-2017 09:45:00 13 C 10.43 g/m*3 13 C 1.6 km/h
695 15-05-2017 09:50:00 13.2 C 10.45 g/m*3 13.2 C 3.2 km/h
696 15-05-2017 09:55:00 13.3 C 10.4 g/m*3 13.3 C 3.2 km/h
697 15-05-2017 10:00:00 13.4 C 10.46 g/m*3 13.4 C 4.8 km/h
698 15-05-2017 10:05:00 13.7 C 10.42 g/m*3 13.7 C 4.8 km/h
699 15-05-2017 10:10:00 13.9 C 10.55 g/m*3 13.9 C 1.6 km/h
700 15-05-2017 10:15:00 14.1 C 10.56 g/m*3 14.1 C 0 km/h
Sensor: Nr:Datum:Temp:Abs-Feuchte:Windchill:Wind:
Aussen-T/F 701 15-05-2017 10:20:00 14.3 C 10.81 g/m*3 14.3 C 0 km/h
702 15-05-2017 10:25:00 14.5 C 10.82 g/m*3 14.5 C 4.8 km/h
703 15-05-2017 10:30:00 14.6 C 10.64 g/m*3 14.6 C 6.4 km/h
704 15-05-2017 10:35:00 14.6 C 10.51 g/m*3 14.6 C 4.8 km/h
705 15-05-2017 10:40:00 14.7 C 10.58 g/m*3 14.7 C 1.6 km/h
706 15-05-2017 10:45:00 14.7 C 10.7 g/m*3 14.7 C 4.8 km/h
707 15-05-2017 10:50:00 14.8 C 10.77 g/m*3 14.8 C 3.2 km/h
708 15-05-2017 10:55:00 14.8 C 10.77 g/m*3 14.8 C 4.8 km/h
709 15-05-2017 11:00:00 14.8 C 10.77 g/m*3 14.8 C 1.6 km/h
710 15-05-2017 11:05:00 14.9 C 10.83 g/m*3 14.9 C 6.4 km/h
711 15-05-2017 11:10:00 14.9 C 10.83 g/m*3 14.9 C 4.8 km/h
712 15-05-2017 11:15:00 15.1 C 10.97 g/m*3 15.1 C 4.8 km/h
713 15-05-2017 11:20:00 15.2 C 10.77 g/m*3 15.2 C 3.2 km/h
714 15-05-2017 11:25:00 15.3 C 10.84 g/m*3 15.3 C 3.2 km/h
715 15-05-2017 11:30:00 15.4 C 10.77 g/m*3 15.4 C 8.1 km/h
716 15-05-2017 11:35:00 15.6 C 10.91 g/m*3 15.6 C 4.8 km/h
717 15-05-2017 11:40:00 15.7 C 10.84 g/m*3 15.7 C 3.2 km/h
718 15-05-2017 11:45:00 15.9 C 10.97 g/m*3 15.9 C 4.8 km/h
719 15-05-2017 11:50:00 16.2 C 11.17 g/m*3 16.2 C 4.8 km/h
720 15-05-2017 11:55:00 16.3 C 10.82 g/m*3 16.3 C 3.2 km/h
721 15-05-2017 12:00:00 16.4 C 10.75 g/m*3 16.4 C 6.4 km/h
722 15-05-2017 12:05:00 16.5 C 10.67 g/m*3 16.5 C 3.2 km/h
723 15-05-2017 12:10:00 16.6 C 10.45 g/m*3 16.6 C 4.8 km/h
724 15-05-2017 12:15:00 16.7 C 9.95 g/m*3 16.7 C 4.8 km/h
725 15-05-2017 12:20:00 16.8 C 9.87 g/m*3 16.8 C 4.8 km/h
Sensor: Nr:Datum:Temp:Abs-Feuchte:Windchill:Wind:
Aussen-T/F 726 15-05-2017 12:25:00 16.9 C 9.78 g/m*3 16.9 C 3.2 km/h
727 15-05-2017 12:30:00 17.1 C 9.9 g/m*3 17.1 C 6.4 km/h
728 15-05-2017 12:35:00 17.2 C 10.1 g/m*3 17.2 C 3.2 km/h
729 15-05-2017 12:40:00 17.4 C 10.23 g/m*3 17.4 C 4.8 km/h
730 15-05-2017 12:45:00 17.7 C 9.81 g/m*3 17.7 C 6.4 km/h
731 15-05-2017 12:50:00 17.8 C 9.56 g/m*3 17.8 C 6.4 km/h
732 15-05-2017 12:55:00 17.9 C 9.92 g/m*3 17.9 C 6.4 km/h
733 15-05-2017 13:00:00 17.9 C 10.38 g/m*3 17.9 C 4.8 km/h
734 15-05-2017 13:05:00 18 C 10.14 g/m*3 18 C 3.2 km/h
735 15-05-2017 13:10:00 18.2 C 10.26 g/m*3 18.2 C 8.1 km/h
736 15-05-2017 13:15:00 18.3 C 10.01 g/m*3 18.3 C 6.4 km/h
737 15-05-2017 13:20:00 18.4 C 9.59 g/m*3 18.4 C 8.1 km/h
738 15-05-2017 13:25:00 18.4 C 8.97 g/m*3 18.4 C 6.4 km/h
739 15-05-2017 13:30:00 18.4 C 10.07 g/m*3 18.4 C 0 km/h
740 15-05-2017 13:35:00 18.3 C 10.01 g/m*3 18.3 C 0 km/h
741 15-05-2017 13:40:00 18.1 C 9.43 g/m*3 18.1 C 1.6 km/h
742 15-05-2017 13:45:00 18.2 C 10.26 g/m*3 18.2 C 4.8 km/h
743 15-05-2017 13:50:00 18.2 C 10.1 g/m*3 18.2 C 3.2 km/h
744 15-05-2017 13:55:00 18.2 C 10.57 g/m*3 18.2 C 0 km/h
745 15-05-2017 14:00:00 18.1 C 10.2 g/m*3 18.1 C 1.6 km/h
746 15-05-2017 14:05:00 18.2 C 9.33 g/m*3 18.2 C 1.6 km/h
747 15-05-2017 14:10:00 18.4 C 10.22 g/m*3 18.4 C 4.8 km/h
748 15-05-2017 14:15:00 18.7 C 9.13 g/m*3 18.7 C 4.8 km/h
749 15-05-2017 14:20:00 18.9 C 9.23 g/m*3 18.9 C 3.2 km/h
750 15-05-2017 14:25:00 19.4 C 9.18 g/m*3 19.4 C 8.1 km/h
Sensor: Nr:Datum:Temp:Abs-Feuchte:Windchill:Wind:
Aussen-T/F 751 15-05-2017 14:30:00 19.7 C 9.51 g/m*3 19.7 C 4.8 km/h
752 15-05-2017 14:35:00 19.9 C 9.11 g/m*3 19.9 C 11.3 km/h
753 15-05-2017 14:40:00 20.1 C 8.87 g/m*3 20.1 C 11.3 km/h
754 15-05-2017 14:45:00 20.2 C 8.92 g/m*3 20.2 C 6.4 km/h
755 15-05-2017 14:50:00 20.3 C 8.62 g/m*3 20.3 C 6.4 km/h
756 15-05-2017 14:55:00 20.3 C 8.79 g/m*3 20.3 C 4.8 km/h
757 15-05-2017 15:00:00 20.4 C 8.85 g/m*3 20.4 C 9.7 km/h
758 15-05-2017 15:05:00 20.6 C 8.77 g/m*3 20.6 C 11.3 km/h
759 15-05-2017 15:10:00 20.7 C 8.1 g/m*3 20.7 C 9.7 km/h
760 15-05-2017 15:15:00 20.8 C 8.51 g/m*3 20.8 C 8.1 km/h
761 15-05-2017 15:20:00 21 C 8.43 g/m*3 21 C 11.3 km/h
762 15-05-2017 15:25:00 21.3 C 8.02 g/m*3 21.3 C 6.4 km/h
763 15-05-2017 15:30:00 21.6 C 7.97 g/m*3 21.6 C 11.3 km/h
764 15-05-2017 15:35:00 21.7 C 7.82 g/m*3 21.7 C 8.1 km/h
765 15-05-2017 15:40:00 22.1 C 8.2 g/m*3 22.1 C 4.8 km/h
766 15-05-2017 15:45:00 22.7 C 8.08 g/m*3 22.7 C 8.1 km/h
767 15-05-2017 15:50:00 23.1 C 7.65 g/m*3 23.1 C 8.1 km/h
768 15-05-2017 15:55:00 23.4 C 7.78 g/m*3 23.4 C 3.2 km/h
769 15-05-2017 16:00:00 23.8 C 8.6 g/m*3 23.8 C 8.1 km/h
770 15-05-2017 16:05:00 24.3 C 8.19 g/m*3 24.3 C 6.4 km/h
771 15-05-2017 16:10:00 24.6 C 7.88 g/m*3 24.6 C 6.4 km/h
772 15-05-2017 16:15:00 24.7 C 7.7 g/m*3 24.7 C 6.4 km/h
773 15-05-2017 16:20:00 24.7 C 7.7 g/m*3 24.7 C 8.1 km/h
774 15-05-2017 16:25:00 24.6 C 8.55 g/m*3 24.6 C 4.8 km/h
775 15-05-2017 16:30:00 24.8 C 7.51 g/m*3 24.8 C 4.8 km/h
Sensor: Nr:Datum:Temp:Abs-Feuchte:Windchill:Wind:
Aussen-T/F 776 15-05-2017 16:35:00 24.7 C 7.24 g/m*3 24.7 C 11.3 km/h
777 15-05-2017 16:40:00 24.6 C 7.43 g/m*3 24.6 C 8.1 km/h
778 15-05-2017 16:45:00 24.5 C 7.16 g/m*3 24.5 C 4.8 km/h
779 15-05-2017 16:50:00 24.6 C 7.43 g/m*3 24.6 C 3.2 km/h
780 15-05-2017 16:55:00 24.8 C 7.51 g/m*3 24.8 C 8.1 km/h
781 15-05-2017 17:00:00 24.9 C 7.1 g/m*3 24.9 C 4.8 km/h
782 15-05-2017 17:05:00 24.9 C 7.32 g/m*3 24.9 C 4.8 km/h
783 15-05-2017 17:10:00 25 C 7.37 g/m*3 25 C 8.1 km/h
784 15-05-2017 17:15:00 25 C 7.6 g/m*3 25 C 6.4 km/h
785 15-05-2017 17:20:00 25.1 C 8.1 g/m*3 25.1 C 6.4 km/h
786 15-05-2017 17:25:00 25.1 C 6.71 g/m*3 25.1 C 4.8 km/h
787 15-05-2017 17:30:00 25.2 C 6.75 g/m*3 25.2 C 9.7 km/h
788 15-05-2017 17:35:00 25.2 C 7.22 g/m*3 25.2 C 6.4 km/h
789 15-05-2017 17:40:00 25.1 C 7.64 g/m*3 25.1 C 4.8 km/h
790 15-05-2017 17:45:00 25.1 C 6.71 g/m*3 25.1 C 9.7 km/h
791 15-05-2017 17:50:00 25.1 C 6.94 g/m*3 25.1 C 6.4 km/h
792 15-05-2017 17:55:00 25.2 C 6.52 g/m*3 25.2 C 8.1 km/h
793 15-05-2017 18:00:00 25.3 C 6.79 g/m*3 25.3 C 8.1 km/h
794 15-05-2017 18:05:00 25.4 C 8 g/m*3 25.4 C 1.6 km/h
795 15-05-2017 18:10:00 25.7 C 6.94 g/m*3 25.7 C 8.1 km/h
796 15-05-2017 18:15:00 25.8 C 6.98 g/m*3 25.8 C 8.1 km/h
797 15-05-2017 18:20:00 25.8 C 6.74 g/m*3 25.8 C 8.1 km/h
798 15-05-2017 18:25:00 25.7 C 5.99 g/m*3 25.7 C 11.3 km/h
799 15-05-2017 18:30:00 25.4 C 5.65 g/m*3 25.4 C 8.1 km/h
800 15-05-2017 18:35:00 25.3 C 6.09 g/m*3 25.3 C 4.8 km/h
Sensor: Nr:Datum:Temp:Abs-Feuchte:Windchill:Wind:
Aussen-T/F 801 15-05-2017 18:40:00 25.4 C 6.36 g/m*3 25.4 C 6.4 km/h
802 15-05-2017 18:45:00 25.4 C 7.3 g/m*3 25.4 C 4.8 km/h
803 15-05-2017 18:50:00 25.6 C 6.9 g/m*3 25.6 C 4.8 km/h
804 15-05-2017 18:55:00 25.7 C 6.7 g/m*3 25.7 C 1.6 km/h
805 15-05-2017 19:00:00 25.6 C 7.86 g/m*3 25.6 C 4.8 km/h
806 15-05-2017 19:05:00 25.4 C 8.48 g/m*3 25.4 C 3.2 km/h
807 15-05-2017 19:10:00 25.3 C 6.09 g/m*3 25.3 C 6.4 km/h
808 15-05-2017 19:15:00 25 C 6.91 g/m*3 25 C 1.6 km/h
809 15-05-2017 19:20:00 24.7 C 8.83 g/m*3 24.7 C 0 km/h
810 15-05-2017 19:25:00 24.3 C 8.85 g/m*3 24.3 C 1.6 km/h
811 15-05-2017 19:30:00 23.9 C 8.87 g/m*3 23.9 C 1.6 km/h
812 15-05-2017 19:35:00 23.6 C 8.29 g/m*3 23.6 C 3.2 km/h
813 15-05-2017 19:40:00 23.2 C 8.52 g/m*3 23.2 C 0 km/h
814 15-05-2017 19:45:00 22.7 C 8.49 g/m*3 22.7 C 1.6 km/h
815 15-05-2017 19:50:00 22.3 C 8.29 g/m*3 22.3 C 0 km/h
816 15-05-2017 19:55:00 21.9 C 8.49 g/m*3 21.9 C 0 km/h
817 15-05-2017 20:00:00 21.6 C 8.72 g/m*3 21.6 C 1.6 km/h
818 15-05-2017 20:05:00 21.2 C 9.08 g/m*3 21.2 C 1.6 km/h
819 15-05-2017 20:10:00 21 C 8.98 g/m*3 21 C 1.6 km/h
820 15-05-2017 20:15:00 20.8 C 8.87 g/m*3 20.8 C 1.6 km/h
821 15-05-2017 20:20:00 20.6 C 8.95 g/m*3 20.6 C 0 km/h
822 15-05-2017 20:25:00 20.3 C 9.15 g/m*3 20.3 C 1.6 km/h
823 15-05-2017 20:30:00 19.9 C 8.59 g/m*3 19.9 C 1.6 km/h
824 15-05-2017 20:35:00 19.6 C 8.44 g/m*3 19.6 C 1.6 km/h
825 15-05-2017 20:40:00 19.2 C 8.41 g/m*3 19.2 C 1.6 km/h
Sensor: Nr:Datum:Temp:Abs-Feuchte:Windchill:Wind:
Aussen-T/F 826 15-05-2017 20:45:00 18.7 C 8.01 g/m*3 18.7 C 1.6 km/h
827 15-05-2017 20:50:00 18.3 C 7.97 g/m*3 18.3 C 0 km/h
828 15-05-2017 20:55:00 17.9 C 7.94 g/m*3 17.9 C 0 km/h
829 15-05-2017 21:00:00 17.6 C 7.8 g/m*3 17.6 C 0 km/h
830 15-05-2017 21:05:00 17.3 C 7.81 g/m*3 17.3 C 1.6 km/h
831 15-05-2017 21:10:00 17 C 7.81 g/m*3 17 C 1.6 km/h
832 15-05-2017 21:15:00 16.8 C 7.86 g/m*3 16.8 C 1.6 km/h
833 15-05-2017 21:20:00 16.5 C 8 g/m*3 16.5 C 1.6 km/h
834 15-05-2017 21:25:00 16.3 C 7.91 g/m*3 16.3 C 1.6 km/h
835 15-05-2017 21:30:00 16.1 C 7.95 g/m*3 16.1 C 1.6 km/h
836 15-05-2017 21:35:00 15.9 C 7.85 g/m*3 15.9 C 1.6 km/h
837 15-05-2017 21:40:00 15.7 C 7.89 g/m*3 15.7 C 0 km/h
838 15-05-2017 21:45:00 15.6 C 8.25 g/m*3 15.6 C 0 km/h
839 15-05-2017 21:50:00 15.3 C 7.7 g/m*3 15.3 C 0 km/h
840 15-05-2017 21:55:00 15.3 C 7.57 g/m*3 15.3 C 0 km/h
841 15-05-2017 22:00:00 15.2 C 8.05 g/m*3 15.2 C 0 km/h
842 15-05-2017 22:05:00 15 C 7.82 g/m*3 15 C 0 km/h
843 15-05-2017 22:10:00 14.8 C 7.85 g/m*3 14.8 C 0 km/h
844 15-05-2017 22:15:00 14.7 C 8.18 g/m*3 14.7 C 0 km/h
845 15-05-2017 22:20:00 14.4 C 8.16 g/m*3 14.4 C 0 km/h
846 15-05-2017 22:25:00 14.3 C 8.35 g/m*3 14.3 C 0 km/h
847 15-05-2017 22:30:00 14.1 C 8.25 g/m*3 14.1 C 0 km/h
848 15-05-2017 22:35:00 13.8 C 8.1 g/m*3 13.8 C 0 km/h
849 15-05-2017 22:40:00 13.6 C 8 g/m*3 13.6 C 0 km/h
850 15-05-2017 22:45:00 13.4 C 8.14 g/m*3 13.4 C 0 km/h
Sensor: Nr:Datum:Temp:Abs-Feuchte:Windchill:Wind:
Aussen-T/F 851 15-05-2017 22:50:00 13.2 C 8.15 g/m*3 13.2 C 0 km/h
852 15-05-2017 22:55:00 13.1 C 8.1 g/m*3 13.1 C 0 km/h
853 15-05-2017 23:00:00 12.9 C 7.78 g/m*3 12.9 C 0 km/h
854 15-05-2017 23:05:00 12.8 C 7.95 g/m*3 12.8 C 0 km/h
855 15-05-2017 23:10:00 12.7 C 8.01 g/m*3 12.7 C 0 km/h
856 15-05-2017 23:15:00 12.5 C 7.92 g/m*3 12.5 C 0 km/h
857 15-05-2017 23:20:00 12.3 C 7.93 g/m*3 12.3 C 0 km/h
858 15-05-2017 23:25:00 12.2 C 7.77 g/m*3 12.2 C 0 km/h
859 15-05-2017 23:30:00 12.1 C 7.83 g/m*3 12.1 C 0 km/h
860 15-05-2017 23:35:00 12 C 7.57 g/m*3 12 C 0 km/h
861 15-05-2017 23:40:00 11.9 C 7.63 g/m*3 11.9 C 0 km/h
862 15-05-2017 23:45:00 11.9 C 7.63 g/m*3 11.9 C 0 km/h
863 15-05-2017 23:50:00 11.8 C 7.68 g/m*3 11.8 C 0 km/h
864 15-05-2017 23:55:00 11.8 C 7.58 g/m*3 11.8 C 0 km/h

Legende:
   Min
   Max


Maximal/Minimal-Werte vom 13.05.2017 - 15.05.2017

Sensor Min Max Avg
Temp
(Aussen-T/F)
8.6 °C
15-05-2017  06:25:00
25.8 °C
13-05-2017  16:30:00
16.28 °C
Abs-Feuchte
(Aussen-T/F)
5.65 g/m*3
15-05-2017  18:30:00
15.07 g/m*3
14-05-2017  16:45:00
10.17 g/m*3
Windchill
(Aussen-T/F)
8.6 C
15-05-2017  06:25:00
25.8 C
13-05-2017  16:30:00
16.26 C

Die Daten stammen von einer Davis Vantage Pro 2 Wetter-Station und werden unter Linux mit der Software wview2wettercgi und aufbereitet. Alle Angaben erfolgen ohne Gewähr für ihre Vollständigkeit oder Richtigkeit.
Kontakt: Rainer Krienke krienke@uni-koblenz.de . Meine Webseiten an der Uni Koblenz oder privat.
Version: $Revision: 0.78 $